Time;durP1;ratioP1;P1;durP2;ratioP2;P2;SDS_P1;SDS_P2;PMS_P1;PMS_P2;Temp;Humidity;BMP_temperature;BMP_pressure;BME280_temperature;BME280_humidity;BME280_pressure;Samples;Min_cycle;Max_cycle;Signal;HPM_P1;HPM_P2
2021/05/23 00:01:06;;;;;;;3.87;1.37;;;;;;;11.36;60.20;99925.59;1710683;83;21285;-69
2021/05/23 00:03:33;;;;;;;4.92;1.20;;;;;;;11.34;60.22;99920.42;1710568;83;21020;-69
2021/05/23 00:06:00;;;;;;;4.75;1.05;;;;;;;11.33;60.23;99920.09;1710365;83;21043;-69
2021/05/23 00:08:27;;;;;;;4.17;1.50;;;;;;;11.35;60.28;99922.59;1710500;83;21099;-69
2021/05/23 00:11:00;;;;;;;4.60;1.07;;;;;;;11.34;60.25;99919.09;1707185;83;21047;-69
2021/05/23 00:13:28;;;;;;;2.67;1.00;;;;;;;11.34;60.31;99915.09;1698897;83;21058;-69
2021/05/23 00:16:01;;;;;;;4.60;1.30;;;;;;;11.35;60.35;99914.08;1693877;84;21612;-69
2021/05/23 00:18:28;;;;;;;2.80;1.15;;;;;;;11.32;60.34;99913.12;1693958;84;20999;-69
2021/05/23 00:20:54;;;;;;;3.40;1.52;;;;;;;11.33;60.38;99919.30;1693865;84;21106;-69
2021/05/23 00:23:21;;;;;;;5.92;1.32;;;;;;;11.29;60.40;99921.51;1693747;84;21082;-69
2021/05/23 00:25:46;;;;;;;5.90;1.30;;;;;;;11.30;60.44;99929.81;1707583;83;21571;-69
2021/05/23 00:28:13;;;;;;;3.42;1.20;;;;;;;11.30;60.46;99927.15;1710293;83;20906;-69
2021/05/23 00:30:39;;;;;;;5.05;1.00;;;;;;;11.27;60.50;99918.18;1710445;83;21675;-69
2021/05/23 00:33:06;;;;;;;6.47;1.47;;;;;;;11.24;60.55;99919.06;1681632;85;21095;-69
2021/05/23 00:35:33;;;;;;;6.05;1.62;;;;;;;11.20;60.59;99918.60;1681459;85;21056;-70
2021/05/23 00:37:59;;;;;;;13.72;3.95;;;;;;;11.19;60.66;99916.94;1681395;85;21116;-69
2021/05/23 00:40:25;;;;;;;15.68;6.35;;;;;;;11.18;60.70;99918.48;1710393;83;21016;-70
2021/05/23 00:42:51;;;;;;;12.43;5.83;;;;;;;11.14;60.75;99920.69;1710422;83;21639;-69
2021/05/23 00:45:18;;;;;;;5.40;2.85;;;;;;;11.11;60.80;99927.73;1710509;83;20907;-70
2021/05/23 00:47:45;;;;;;;4.00;1.57;;;;;;;11.06;60.87;99927.95;1679114;85;21048;-69
2021/05/23 00:50:19;;;;;;;2.92;1.70;;;;;;;11.02;60.94;99930.16;1681514;85;21595;-69
2021/05/23 00:52:45;;;;;;;3.35;1.92;;;;;;;10.98;61.01;99931.53;1681236;85;21109;-69
2021/05/23 00:55:11;;;;;;;4.03;1.77;;;;;;;10.92;61.06;99933.61;1681421;85;21638;-70
2021/05/23 00:57:37;;;;;;;2.62;1.20;;;;;;;10.86;61.16;99941.02;1710631;83;21025;-69
2021/05/23 01:00:05;;;;;;;7.08;1.40;;;;;;;10.80;61.23;99940.42;1710625;83;21143;-69
2021/05/23 01:02:46;;;;;;;5.92;1.52;;;;;;;10.74;61.31;99939.30;1710428;83;21052;-70
2021/05/23 01:05:19;;;;;;;4.22;1.50;;;;;;;10.70;61.41;99942.50;1681166;85;21167;-69
2021/05/23 01:07:45;;;;;;;3.92;1.40;;;;;;;10.66;61.50;99943.36;1681257;85;21508;-69
2021/05/23 01:10:18;;;;;;;3.95;1.37;;;;;;;10.61;61.60;99948.93;1681465;85;20917;-69
2021/05/23 01:12:59;;;;;;;7.80;3.67;;;;;;;10.57;61.70;99950.30;1703352;83;21140;-69
2021/05/23 01:15:37;;;;;;;13.80;4.25;;;;;;;10.52;61.82;99947.66;1700006;83;21299;-69
2021/05/23 01:18:14;;;;;;;7.47;3.62;;;;;;;10.49;61.95;99949.36;1701315;83;21060;-69
2021/05/23 01:20:57;;;;;;;9.18;2.83;;;;;;;10.44;62.04;99950.42;1720726;83;21104;-69
2021/05/23 01:23:26;;;;;;;3.37;1.72;;;;;;;10.38;62.16;99948.45;1720591;83;21080;-69
2021/05/23 01:25:56;;;;;;;5.65;2.20;;;;;;;10.39;62.29;99954.63;1702662;84;21044;-69
2021/05/23 01:28:22;;;;;;;4.20;1.72;;;;;;;10.35;62.40;99962.15;1702882;84;21645;-69
2021/05/23 01:30:50;;;;;;;4.15;1.92;;;;;;;10.33;62.50;99966.01;1720686;83;20910;-69
2021/05/23 01:33:19;;;;;;;5.58;1.52;;;;;;;10.29;62.58;99965.53;1720800;83;21080;-69
2021/05/23 01:35:50;;;;;;;5.87;2.30;;;;;;;10.25;62.69;99964.23;1720699;83;21072;-69
2021/05/23 01:38:18;;;;;;;6.05;2.12;;;;;;;10.24;62.76;99967.89;1720700;83;21089;-69
2021/05/23 01:40:44;;;;;;;5.20;1.95;;;;;;;10.20;62.83;99966.62;1718716;83;21127;-69
2021/05/23 01:43:11;;;;;;;4.67;1.90;;;;;;;10.16;62.93;99967.14;1720356;83;21100;-69
2021/05/23 01:45:37;;;;;;;5.10;1.72;;;;;;;10.13;63.04;99968.30;1720766;83;21561;-69
2021/05/23 01:48:05;;;;;;;3.77;1.15;;;;;;;10.12;63.16;99966.64;1720646;83;21072;-69
2021/05/23 01:50:31;;;;;;;2.17;1.10;;;;;;;10.13;63.25;99966.14;1705721;83;21085;-69
2021/05/23 01:53:02;;;;;;;2.87;1.15;;;;;;;10.14;63.33;99963.31;1691509;84;21248;-69
2021/05/23 01:55:29;;;;;;;3.55;1.10;;;;;;;10.15;63.41;99976.97;1691699;84;21146;-69
2021/05/23 01:57:55;;;;;;;1.87;0.80;;;;;;;10.12;63.50;99974.62;1691805;83;21002;-69
2021/05/23 02:00:29;;;;;;;4.80;1.10;;;;;;;10.11;63.58;99970.30;1692072;84;21088;-69
2021/05/23 02:02:55;;;;;;;3.40;1.17;;;;;;;10.15;63.68;99974.30;1691987;84;21029;-69
2021/05/23 02:05:21;;;;;;;4.62;1.20;;;;;;;10.17;63.76;99978.14;1688062;83;21553;-69
2021/05/23 02:07:47;;;;;;;2.90;1.17;;;;;;;10.19;63.83;99988.09;1688800;83;21443;-69
2021/05/23 02:10:16;;;;;;;2.90;1.35;;;;;;;10.15;63.90;99986.30;1691767;84;21048;-69
2021/05/23 02:12:44;;;;;;;3.37;1.10;;;;;;;10.14;63.97;99988.63;1684209;84;21171;-69
2021/05/23 02:15:11;;;;;;;4.78;1.20;;;;;;;10.10;64.05;99985.95;1682385;83;21584;-69
2021/05/23 02:17:40;;;;;;;2.87;1.05;;;;;;;10.05;64.11;99985.67;1681834;85;21620;-69
2021/05/23 02:20:17;;;;;;;3.98;1.22;;;;;;;10.00;64.18;99985.35;1682109;84;21593;-69
2021/05/23 02:22:45;;;;;;;3.10;1.52;;;;;;;9.93;64.25;99976.41;1698372;83;21056;-69
2021/05/23 02:25:16;;;;;;;3.10;1.35;;;;;;;9.87;64.33;99975.78;1710845;82;21072;-69
2021/05/23 02:27:48;;;;;;;2.98;1.45;;;;;;;9.80;64.38;99983.66;1710808;83;21032;-70
2021/05/23 02:30:25;;;;;;;7.42;2.17;;;;;;;9.76;64.43;99992.16;1710768;82;21583;-69
2021/05/23 02:32:51;;;;;;;4.75;1.42;;;;;;;9.72;64.52;99993.50;1708773;83;21036;-69
2021/05/23 02:35:19;;;;;;;3.83;2.33;;;;;;;9.65;64.58;99992.54;1710553;83;21048;-69
2021/05/23 02:37:45;;;;;;;5.78;1.85;;;;;;;9.62;64.65;99991.56;1694410;83;21025;-69
2021/05/23 02:40:14;;;;;;;2.92;1.50;;;;;;;9.55;64.70;99990.09;1710346;82;21055;-69
2021/05/23 02:42:40;;;;;;;3.70;1.40;;;;;;;9.51;64.78;99992.28;1710926;83;21119;-69
2021/05/23 02:45:08;;;;;;;3.47;1.32;;;;;;;9.49;64.90;99994.30;1694156;83;21033;-69
2021/05/23 02:47:35;;;;;;;3.67;1.82;;;;;;;9.48;64.97;99999.78;1710741;82;21048;-69
2021/05/23 02:50:05;;;;;;;4.60;1.60;;;;;;;9.45;65.04;100002.30;1710801;83;21096;-69
2021/05/23 02:52:31;;;;;;;;;;;;;;;9.45;65.15;100010.28;1713142;83;21028;-69
2021/05/23 02:54:57;;;;;;;4.22;1.90;;;;;;;9.44;65.25;100009.10;1692100;82;21053;-69
2021/05/23 02:57:23;;;;;;;4.60;1.50;;;;;;;9.44;65.32;100009.94;1682284;83;20976;-69
2021/05/23 02:59:49;;;;;;;4.90;1.60;;;;;;;9.43;65.38;100012.27;1682365;85;20925;-69
2021/05/23 03:02:15;;;;;;;2.77;1.37;;;;;;;9.43;65.45;100014.92;1681905;85;21096;-69
2021/05/23 03:04:41;;;;;;;3.60;1.70;;;;;;;9.45;65.50;100016.09;1682202;84;21686;-69
2021/05/23 03:07:07;;;;;;;6.30;1.82;;;;;;;9.44;65.53;100012.60;1682199;85;21174;-69
2021/05/23 03:09:33;;;;;;;4.10;1.60;;;;;;;9.45;65.60;100010.77;1682016;85;21075;-69
2021/05/23 03:11:58;;;;;;;5.15;1.52;;;;;;;9.44;65.63;100005.95;1682147;84;20949;-69
2021/05/23 03:14:24;;;;;;;6.03;1.87;;;;;;;9.42;65.70;100003.97;1682304;85;20922;-69
2021/05/23 03:16:51;;;;;;;6.83;1.72;;;;;;;9.44;65.72;100008.61;1682335;84;21665;-69
2021/05/23 03:19:17;;;;;;;3.98;1.57;;;;;;;9.44;65.79;100008.61;1681855;85;21129;-69
2021/05/23 03:21:43;;;;;;;4.28;1.70;;;;;;;9.45;65.79;100016.93;1683033;83;20938;-69
2021/05/23 03:24:09;;;;;;;5.17;1.67;;;;;;;9.44;65.84;100021.91;1682254;85;20935;-69
2021/05/23 03:26:35;;;;;;;5.25;1.80;;;;;;;9.42;65.90;100023.94;1694301;83;21101;-69
2021/05/23 03:29:01;;;;;;;6.17;2.45;;;;;;;9.42;65.95;100030.59;1710910;82;21019;-69
2021/05/23 03:31:27;;;;;;;8.75;3.40;;;;;;;9.45;66.02;100036.06;1710694;83;21870;-69
2021/05/23 03:33:53;;;;;;;5.40;1.82;;;;;;;9.52;66.08;100035.70;1710870;83;21096;-69
2021/05/23 03:36:19;;;;;;;14.20;1.92;;;;;;;9.69;66.16;100041.78;1710947;83;21659;-69
2021/05/23 03:38:46;;;;;;;5.50;2.10;;;;;;;10.00;66.32;100037.30;1710531;83;20909;-69
2021/05/23 03:41:12;;;;;;;5.72;2.77;;;;;;;10.35;66.11;100042.61;1710746;83;21037;-69
2021/05/23 03:43:39;;;;;;;6.87;1.85;;;;;;;10.12;65.86;100046.56;1710552;82;21220;-69
2021/05/23 03:46:04;;;;;;;6.53;2.20;;;;;;;9.97;65.95;100056.30;1710780;83;21020;-69
2021/05/23 03:48:31;;;;;;;4.53;1.67;;;;;;;9.85;66.04;100058.51;1710548;83;20936;-69
2021/05/23 03:50:57;;;;;;;5.85;2.05;;;;;;;10.09;66.19;100064.73;1710908;83;21048;-69
2021/05/23 03:53:23;;;;;;;6.33;1.60;;;;;;;10.84;66.37;100063.06;1710964;83;20996;-69
2021/05/23 03:55:49;;;;;;;4.75;1.60;;;;;;;11.91;65.93;100069.30;1711032;83;21111;-70
2021/05/23 03:58:16;;;;;;;4.50;1.67;;;;;;;12.59;65.72;100072.03;1702662;83;21095;-70
2021/05/23 04:00:42;;;;;;;6.58;1.50;;;;;;;13.80;65.35;100072.55;1682287;84;21044;-70
2021/05/23 04:03:08;;;;;;;5.10;1.75;;;;;;;14.83;64.55;100072.27;1682366;85;21544;-70
2021/05/23 04:05:35;;;;;;;2.58;1.10;;;;;;;15.52;63.87;100075.91;1697701;83;20996;-70
2021/05/23 04:08:00;;;;;;;3.77;1.52;;;;;;;16.12;63.16;100063.38;1710782;83;21141;-70
2021/05/23 04:10:31;;;;;;;4.33;1.47;;;;;;;16.83;62.38;100068.58;1710106;83;20886;-70
2021/05/23 04:12:57;;;;;;;5.50;1.65;;;;;;;16.85;61.35;100070.00;1704796;82;21631;-70
2021/05/23 04:15:23;;;;;;;3.42;1.60;;;;;;;17.10;60.38;100074.05;1685365;84;21080;-70
2021/05/23 04:17:49;;;;;;;4.10;1.90;;;;;;;17.13;59.52;100074.98;1685908;84;21705;-70
2021/05/23 04:20:18;;;;;;;6.42;2.98;;;;;;;17.49;58.83;100075.05;1697189;84;21304;-70
2021/05/23 04:22:45;;;;;;;4.65;1.65;;;;;;;17.96;58.06;100072.19;1666040;84;21138;-71
2021/05/23 04:25:13;;;;;;;5.97;2.60;;;;;;;18.08;57.06;100064.69;1718751;83;21596;-71
2021/05/23 04:27:44;;;;;;;4.10;1.65;;;;;;;18.13;56.32;100065.64;1716054;83;21069;-70
2021/05/23 04:30:10;;;;;;;4.08;1.75;;;;;;;18.30;55.80;100060.43;1705987;81;21663;-70
2021/05/23 04:32:36;;;;;;;2.70;1.30;;;;;;;18.35;54.76;100056.01;1684602;81;21573;-71
2021/05/23 04:35:03;;;;;;;2.15;1.15;;;;;;;17.98;53.63;100058.45;1700567;81;21116;-70
2021/05/23 04:37:30;;;;;;;2.47;0.90;;;;;;;17.61;53.44;100050.08;1689441;81;21056;-71
2021/05/23 04:39:56;;;;;;;3.55;1.45;;;;;;;16.98;53.65;100061.01;1689548;81;21038;-70
2021/05/23 04:42:22;;;;;;;1.98;0.98;;;;;;;16.40;53.92;100061.67;1707420;81;21030;-70
2021/05/23 04:44:48;;;;;;;2.50;1.37;;;;;;;15.78;54.20;100067.75;1698566;81;21112;-70
2021/05/23 04:47:14;;;;;;;2.02;1.17;;;;;;;15.34;54.41;100077.31;1695142;81;21075;-71
2021/05/23 04:49:40;;;;;;;1.87;0.98;;;;;;;15.13;54.51;100073.50;1698117;81;21008;-70
2021/05/23 04:52:10;;;;;;;2.22;1.20;;;;;;;15.04;54.65;100084.67;1703377;81;20890;-70
2021/05/23 04:54:37;;;;;;;2.75;1.20;;;;;;;15.28;54.73;100086.73;1705555;81;21546;-71
2021/05/23 04:57:04;;;;;;;1.72;1.10;;;;;;;15.30;54.69;100088.20;1704670;81;21111;-71
2021/05/23 04:59:30;;;;;;;3.08;1.37;;;;;;;15.36;54.77;100098.10;1702349;81;21058;-71
2021/05/23 05:01:56;;;;;;;2.80;1.40;;;;;;;15.23;54.72;100102.15;1697167;81;21586;-71
2021/05/23 05:04:22;;;;;;;5.12;1.35;;;;;;;15.21;54.79;100107.39;1696601;84;20975;-71
2021/05/23 05:06:48;;;;;;;4.37;1.62;;;;;;;15.06;54.76;100110.28;1688754;84;21072;-71
2021/05/23 05:09:14;;;;;;;2.77;1.20;;;;;;;15.17;54.82;100115.05;1687350;84;21130;-71
2021/05/23 05:11:39;;;;;;;3.45;1.57;;;;;;;15.34;54.80;100106.88;1710773;83;21643;-71
2021/05/23 05:14:06;;;;;;;4.47;1.87;;;;;;;15.42;54.72;100120.61;1704328;83;20929;-71
2021/05/23 05:16:32;;;;;;;5.10;1.80;;;;;;;15.54;54.73;100118.16;1715492;83;21089;-71
2021/05/23 05:18:58;;;;;;;5.58;1.82;;;;;;;15.47;54.60;100127.04;1715880;83;20939;-71
2021/05/23 05:21:24;;;;;;;3.02;1.70;;;;;;;15.35;54.54;100136.75;1684350;83;21613;-71
2021/05/23 05:23:50;;;;;;;3.58;1.80;;;;;;;15.29;54.53;100140.27;1682022;83;21004;-71
2021/05/23 05:26:16;;;;;;;3.08;1.17;;;;;;;15.20;54.51;100136.12;1681891;85;20936;-71
2021/05/23 05:28:42;;;;;;;2.70;1.75;;;;;;;15.15;54.58;100143.98;1681811;83;20921;-71
2021/05/23 05:31:09;;;;;;;2.35;1.10;;;;;;;15.13;54.57;100142.55;1682006;85;21072;-71
2021/05/23 05:33:35;;;;;;;1.67;1.07;;;;;;;15.03;54.58;100139.41;1681971;85;21412;-71
2021/05/23 05:36:01;;;;;;;4.35;1.20;;;;;;;15.35;54.75;100158.24;1681874;85;21547;-71
2021/05/23 05:38:27;;;;;;;1.52;1.07;;;;;;;15.54;54.64;100158.48;1696948;82;20924;-71
2021/05/23 05:40:53;;;;;;;3.50;1.20;;;;;;;15.59;54.63;100158.67;1710519;83;20908;-71
2021/05/23 05:43:19;;;;;;;2.98;1.20;;;;;;;15.52;54.56;100169.43;1710293;83;21012;-71
2021/05/23 05:45:45;;;;;;;3.30;1.50;;;;;;;15.45;54.55;100172.09;1710332;83;21798;-71
2021/05/23 05:48:13;;;;;;;2.33;0.90;;;;;;;15.40;54.58;100169.21;1710379;83;20920;-71
2021/05/23 05:50:39;;;;;;;2.70;1.32;;;;;;;15.37;54.67;100178.20;1710420;82;21059;-71
2021/05/23 05:53:05;;;;;;;4.53;1.50;;;;;;;15.65;54.75;100182.88;1710161;83;20967;-70
2021/05/23 05:55:31;;;;;;;3.05;0.80;;;;;;;15.37;54.66;100191.12;1710472;83;21007;-70
2021/05/23 05:57:57;;;;;;;2.22;1.12;;;;;;;15.02;54.69;100186.95;1708081;83;21216;-70
2021/05/23 06:00:23;;;;;;;1.90;1.15;;;;;;;14.69;54.85;100186.02;1710497;83;20865;-70
2021/05/23 06:02:49;;;;;;;5.17;1.85;;;;;;;14.42;55.03;100180.58;1710009;83;20896;-70
2021/05/23 06:05:15;;;;;;;5.05;2.25;;;;;;;14.56;55.23;100187.33;1710648;83;21029;-70
2021/05/23 06:07:43;;;;;;;5.60;1.45;;;;;;;15.22;55.31;100186.97;1710331;83;21015;-70
2021/05/23 06:10:10;;;;;;;2.77;1.20;;;;;;;15.59;55.16;100176.14;1700709;83;21307;-70
2021/05/23 06:12:36;;;;;;;4.87;1.60;;;;;;;15.77;55.16;100181.20;1678923;84;21182;-70
2021/05/23 06:15:04;;;;;;;3.50;1.55;;;;;;;16.14;55.09;100171.63;1665570;86;21654;-70
2021/05/23 06:17:30;;;;;;;3.77;1.85;;;;;;;16.31;55.00;100169.28;1670084;86;21102;-71
2021/05/23 06:19:56;;;;;;;4.17;2.20;;;;;;;16.42;54.96;100177.53;1669871;86;20946;-71
2021/05/23 06:22:22;;;;;;;4.40;1.77;;;;;;;16.51;54.83;100182.14;1671981;85;21736;-71
2021/05/23 06:24:48;;;;;;;3.90;2.10;;;;;;;16.69;54.73;100166.66;1678291;85;20913;-71
2021/05/23 06:27:14;;;;;;;2.05;1.50;;;;;;;16.58;54.45;100164.63;1678002;85;21036;-70
2021/05/23 06:29:40;;;;;;;1.80;1.60;;;;;;;16.50;54.32;100163.80;1650667;85;20893;-70
2021/05/23 06:32:06;;;;;;;3.05;1.87;;;;;;;16.59;54.35;100155.52;1671235;85;21016;-70
2021/05/23 06:34:33;;;;;;;3.90;2.20;;;;;;;16.94;54.33;100158.95;1678521;85;21113;-71
2021/05/23 06:36:59;;;;;;;2.00;1.70;;;;;;;17.29;54.17;100159.84;1677344;85;21079;-71
2021/05/23 06:39:25;;;;;;;2.30;1.57;;;;;;;17.43;53.93;100164.91;1651182;86;21017;-71
2021/05/23 06:41:51;;;;;;;6.97;2.65;;;;;;;17.35;53.73;100167.88;1657959;85;21076;-71
2021/05/23 06:44:18;;;;;;;4.53;2.27;;;;;;;17.31;53.68;100168.00;1663373;85;20961;-71
2021/05/23 06:46:45;;;;;;;4.50;2.35;;;;;;;17.13;53.51;100174.70;1657313;84;21782;-71
2021/05/23 06:49:11;;;;;;;3.50;2.30;;;;;;;17.13;53.33;100172.00;1661545;85;21101;-71
2021/05/23 06:51:37;;;;;;;3.05;2.10;;;;;;;17.16;53.22;100164.82;1672137;85;21104;-71
2021/05/23 06:54:04;;;;;;;3.55;2.12;;;;;;;17.31;53.15;100172.05;1669206;85;21400;-71
2021/05/23 06:56:29;;;;;;;3.98;1.87;;;;;;;17.26;52.81;100173.24;1654522;85;21214;-71
2021/05/23 06:58:55;;;;;;;4.67;1.62;;;;;;;17.17;52.73;100175.88;1671310;85;21138;-71
2021/05/23 07:01:21;;;;;;;3.20;1.52;;;;;;;16.81;52.57;100183.80;1678579;85;21579;-71
2021/05/23 07:03:48;;;;;;;5.87;2.62;;;;;;;16.50;52.63;100190.73;1674462;85;21088;-71
2021/05/23 07:06:14;;;;;;;3.65;1.60;;;;;;;16.42;52.70;100190.98;1672325;85;20938;-70
2021/05/23 07:08:40;;;;;;;2.45;1.70;;;;;;;15.98;52.73;100198.95;1675876;85;21027;-71
2021/05/23 07:11:06;;;;;;;2.90;1.70;;;;;;;16.07;52.95;100195.54;1678503;85;21692;-71
2021/05/23 07:13:32;;;;;;;4.17;2.25;;;;;;;16.01;52.91;100199.87;1688321;82;21139;-71
2021/05/23 07:15:58;;;;;;;3.25;2.10;;;;;;;16.01;52.98;100194.50;1707273;84;21036;-71
2021/05/23 07:18:24;;;;;;;4.65;2.22;;;;;;;16.28;53.00;100194.77;1695331;83;21085;-71
2021/05/23 07:20:51;;;;;;;3.67;1.55;;;;;;;16.74;52.97;100187.88;1696990;84;20945;-71
2021/05/23 07:23:17;;;;;;;6.45;1.60;;;;;;;17.05;52.84;100188.94;1696157;84;21400;-71
2021/05/23 07:25:43;;;;;;;2.37;1.30;;;;;;;17.10;52.71;100191.82;1695298;83;21546;-71
2021/05/23 07:28:09;;;;;;;5.58;1.72;;;;;;;17.27;52.65;100189.73;1706543;83;20937;-71
2021/05/23 07:30:35;;;;;;;4.67;1.60;;;;;;;17.41;52.38;100185.06;1699713;84;20976;-71
2021/05/23 07:33:01;;;;;;;4.67;1.50;;;;;;;17.08;52.29;100192.02;1697224;83;21103;-71
2021/05/23 07:35:27;;;;;;;6.08;2.05;;;;;;;16.65;52.41;100195.05;1686021;84;21136;-71
2021/05/23 07:37:53;;;;;;;2.67;1.20;;;;;;;16.46;52.47;100202.98;1679073;85;20929;-71
2021/05/23 07:40:19;;;;;;;2.50;1.90;;;;;;;16.34;52.50;100206.02;1679257;84;21144;-70
2021/05/23 07:42:45;;;;;;;3.25;1.70;;;;;;;16.31;52.54;100207.79;1679002;85;20972;-71
2021/05/23 07:45:12;;;;;;;4.65;1.35;;;;;;;16.25;52.63;100211.34;1679343;85;20996;-70
2021/05/23 07:47:38;;;;;;;1.40;1.00;;;;;;;16.38;52.80;100217.19;1679328;85;21031;-71
2021/05/23 07:50:05;;;;;;;1.65;0.80;;;;;;;17.01;52.83;100211.45;1679184;85;21057;-71
2021/05/23 07:52:31;;;;;;;3.45;1.27;;;;;;;16.84;52.53;100202.22;1679221;85;21052;-71
2021/05/23 07:54:57;;;;;;;3.25;1.00;;;;;;;16.64;52.65;100217.66;1678596;85;20992;-71
2021/05/23 07:57:23;;;;;;;3.58;1.30;;;;;;;16.49;52.65;100220.06;1679306;85;21084;-71
2021/05/23 07:59:49;;;;;;;2.35;1.60;;;;;;;16.25;52.71;100214.03;1679398;85;21116;-71
2021/05/23 08:02:15;;;;;;;2.67;1.67;;;;;;;16.18;52.83;100222.63;1679059;85;20902;-71
2021/05/23 08:04:41;;;;;;;1.90;1.42;;;;;;;16.06;52.81;100226.99;1679299;85;21065;-71
2021/05/23 08:07:07;;;;;;;1.37;1.07;;;;;;;15.87;52.85;100221.11;1679118;85;21588;-70
2021/05/23 08:09:33;;;;;;;2.60;2.25;;;;;;;15.67;52.92;100224.33;1679336;85;20923;-71
2021/05/23 08:11:59;;;;;;;7.53;6.85;;;;;;;15.64;53.04;100227.44;1679077;85;21776;-70
2021/05/23 08:14:25;;;;;;;4.40;2.25;;;;;;;15.92;53.06;100224.01;1687163;84;20981;-70
2021/05/23 08:16:51;;;;;;;2.47;1.62;;;;;;;16.40;53.20;100219.97;1692023;84;21069;-70
2021/05/23 08:19:19;;;;;;;5.08;4.00;;;;;;;16.94;53.20;100217.39;1692106;84;21028;-71
2021/05/23 08:21:45;;;;;;;6.70;2.87;;;;;;;17.09;53.00;100224.67;1691910;84;21065;-71
2021/05/23 08:24:11;;;;;;;3.77;1.35;;;;;;;17.36;52.79;100221.27;1691643;84;21191;-71
2021/05/23 08:26:38;;;;;;;6.55;1.12;;;;;;;17.47;52.50;100224.62;1691834;84;21573;-71
2021/05/23 08:29:04;;;;;;;9.23;7.85;;;;;;;17.48;52.20;100224.41;1691810;84;21049;-70
2021/05/23 08:31:30;;;;;;;6.58;3.00;;;;;;;17.61;52.00;100212.72;1691986;84;21623;-71
2021/05/23 08:33:56;;;;;;;2.55;1.42;;;;;;;17.39;51.62;100218.97;1691794;84;21029;-70
2021/05/23 08:36:22;;;;;;;3.27;1.60;;;;;;;17.36;51.43;100219.92;1691984;84;21759;-70
2021/05/23 08:38:48;;;;;;;2.27;1.07;;;;;;;17.51;51.31;100216.92;1691723;84;21021;-71
2021/05/23 08:41:19;;;;;;;6.45;3.15;;;;;;;17.79;51.08;100232.17;1691823;84;21667;-71
2021/05/23 08:43:46;;;;;;;2.95;1.47;;;;;;;18.08;51.02;100230.14;1691951;84;21592;-71
2021/05/23 08:46:13;;;;;;;4.00;2.25;;;;;;;18.29;50.92;100225.67;1691980;84;21076;-71
2021/05/23 08:48:40;;;;;;;5.37;1.80;;;;;;;18.35;50.73;100228.81;1691782;84;21111;-71
2021/05/23 08:51:08;;;;;;;2.42;1.32;;;;;;;18.34;50.41;100220.41;1691564;84;21041;-71
2021/05/23 08:53:33;;;;;;;4.37;2.55;;;;;;;18.19;50.19;100228.58;1692072;84;21045;-71
2021/05/23 08:55:59;;;;;;;4.55;2.60;;;;;;;18.08;49.77;100224.75;1691495;84;20905;-71
2021/05/23 08:58:26;;;;;;;5.30;3.40;;;;;;;17.52;49.28;100231.54;1691786;84;21104;-71
2021/05/23 09:00:52;;;;;;;1.85;0.90;;;;;;;17.46;49.27;100237.27;1691232;84;21096;-71
2021/05/23 09:03:18;;;;;;;2.37;1.25;;;;;;;17.76;49.38;100225.36;1691641;84;21069;-70
2021/05/23 09:05:48;;;;;;;1.70;0.88;;;;;;;18.27;49.05;100222.35;1691805;84;21028;-71
2021/05/23 09:08:21;;;;;;;3.05;1.70;;;;;;;18.52;48.72;100218.78;1691105;84;21036;-70
2021/05/23 09:10:49;;;;;;;7.45;4.40;;;;;;;18.77;48.59;100220.86;1691532;84;21116;-70
2021/05/23 09:13:36;;;;;;;4.30;2.20;;;;;;;18.91;48.42;100231.80;1691767;84;22036;-70
2021/05/23 09:16:13;;;;;;;8.98;4.03;;;;;;;18.67;47.83;100236.79;1691688;84;21100;-70
2021/05/23 09:18:49;;;;;;;5.95;1.27;;;;;;;18.55;47.65;100228.61;1691829;84;21593;-70
2021/05/23 09:21:22;;;;;;;1.82;1.07;;;;;;;18.55;47.52;100233.18;1691761;84;21063;-70
2021/05/23 09:24:01;;;;;;;4.12;2.08;;;;;;;18.11;47.38;100244.54;1691949;84;20993;-71
2021/05/23 09:26:30;;;;;;;3.37;1.22;;;;;;;17.89;47.53;100239.23;1691856;84;21053;-70
2021/05/23 09:29:18;;;;;;;1.95;0.90;;;;;;;18.13;47.60;100234.33;1691322;84;21037;-70
2021/05/23 09:31:47;;;;;;;3.77;1.67;;;;;;;18.59;47.44;100235.73;1691692;84;21052;-70
2021/05/23 09:34:25;;;;;;;1.90;0.88;;;;;;;18.89;47.23;100231.22;1691759;84;21072;-70
2021/05/23 09:36:52;;;;;;;1.80;0.50;;;;;;;18.50;46.76;100241.12;1692006;84;21057;-70
2021/05/23 09:39:18;;;;;;;5.87;0.82;;;;;;;17.98;46.58;100245.99;1691576;84;21692;-70
2021/05/23 09:41:44;;;;;;;4.90;1.72;;;;;;;17.54;46.69;100246.97;1691689;84;21080;-69
2021/05/23 09:44:22;;;;;;;3.00;0.62;;;;;;;17.29;46.77;100247.45;1691943;84;21613;-70
2021/05/23 09:47:08;;;;;;;4.30;1.10;;;;;;;17.13;46.83;100252.84;1691684;84;21048;-70
2021/05/23 09:49:41;;;;;;;6.42;2.33;;;;;;;17.14;46.96;100254.47;1691364;84;21627;-70
2021/05/23 09:52:14;;;;;;;4.90;1.98;;;;;;;17.16;47.06;100256.45;1691755;84;21117;-70
2021/05/23 09:54:52;;;;;;;3.37;1.30;;;;;;;17.11;47.12;100251.38;1691673;84;21112;-70
2021/05/23 09:57:24;;;;;;;2.90;1.20;;;;;;;17.01;47.20;100257.25;1691832;84;21537;-70
2021/05/23 10:00:10;;;;;;;2.58;1.10;;;;;;;17.08;47.30;100255.34;1691677;84;21064;-70
2021/05/23 10:02:57;;;;;;;2.42;1.45;;;;;;;17.01;47.28;100261.29;1691971;84;20985;-70
2021/05/23 10:05:24;;;;;;;8.18;4.00;;;;;;;16.97;47.37;100272.19;1697749;83;21115;-70
2021/05/23 10:07:49;;;;;;;5.50;2.60;;;;;;;16.92;47.47;100266.63;1700974;84;21065;-70
2021/05/23 10:10:16;;;;;;;3.37;2.52;;;;;;;16.88;47.53;100264.05;1702622;84;20926;-70
2021/05/23 10:12:42;;;;;;;4.42;2.12;;;;;;;16.87;47.52;100267.78;1669209;84;21099;-70
2021/05/23 10:15:10;;;;;;;3.25;1.37;;;;;;;16.84;47.55;100269.55;1689130;84;21073;-69
2021/05/23 10:17:37;;;;;;;3.52;1.47;;;;;;;16.85;47.61;100271.22;1698304;84;21077;-70
2021/05/23 10:20:09;;;;;;;2.50;1.07;;;;;;;16.74;47.69;100281.30;1699269;84;21583;-70
2021/05/23 10:22:36;;;;;;;4.80;2.08;;;;;;;16.61;47.73;100287.55;1699529;84;21065;-70
2021/05/23 10:25:11;;;;;;;5.25;2.92;;;;;;;16.57;47.80;100278.78;1699287;84;21033;-70
2021/05/23 10:27:39;;;;;;;9.08;1.40;;;;;;;16.82;47.90;100276.49;1697444;84;21093;-70
2021/05/23 10:30:07;;;;;;;2.70;0.95;;;;;;;17.30;47.99;100272.85;1709565;82;21614;-70
2021/05/23 10:32:35;;;;;;;2.33;0.93;;;;;;;17.85;47.98;100263.66;1683554;83;21671;-69
2021/05/23 10:35:20;;;;;;;2.00;0.80;;;;;;;18.14;47.80;100267.03;1689762;84;21608;-69
2021/05/23 10:37:48;;;;;;;3.27;1.55;;;;;;;18.43;47.70;100257.40;1710305;83;21095;-70
2021/05/23 10:40:28;;;;;;;2.98;1.25;;;;;;;18.55;47.47;100247.52;1669435;83;21071;-70
2021/05/23 10:42:57;;;;;;;2.25;0.90;;;;;;;18.77;47.37;100254.64;1685952;84;21268;-70
2021/05/23 10:45:34;;;;;;;2.75;0.98;;;;;;;18.94;47.08;100254.31;1697773;83;21041;-70
2021/05/23 10:48:17;;;;;;;3.35;1.55;;;;;;;19.14;46.95;100252.16;1692465;84;21044;-70
2021/05/23 10:50:44;;;;;;;8.40;2.08;;;;;;;19.35;46.81;100248.14;1669959;84;21144;-70
2021/05/23 10:53:11;;;;;;;4.28;1.40;;;;;;;19.41;46.49;100248.08;1668743;84;21032;-70
2021/05/23 10:55:50;;;;;;;2.90;0.88;;;;;;;19.56;46.12;100254.93;1672112;83;21195;-70
2021/05/23 10:58:24;;;;;;;7.22;2.25;;;;;;;19.65;45.69;100248.94;1690090;84;21120;-70
2021/05/23 11:00:51;;;;;;;5.55;2.25;;;;;;;19.76;45.38;100232.42;1706852;83;21060;-70
2021/05/23 11:03:19;;;;;;;2.90;1.02;;;;;;;19.69;44.97;100247.95;1690569;84;21372;-69
2021/05/23 11:05:45;;;;;;;4.95;2.42;;;;;;;19.50;44.82;100247.20;1701709;83;21081;-70
2021/05/23 11:08:14;;;;;;;11.33;1.65;;;;;;;19.02;44.57;100266.17;1699561;83;21722;-69
2021/05/23 11:10:43;;;;;;;6.87;2.25;;;;;;;18.40;44.34;100270.80;1703350;82;21030;-69
2021/05/23 11:13:15;;;;;;;4.67;1.62;;;;;;;17.44;44.27;100287.90;1702239;83;21061;-70
2021/05/23 11:15:43;;;;;;;3.45;1.42;;;;;;;16.64;44.64;100284.97;1709691;83;21067;-70
2021/05/23 11:18:26;;;;;;;4.35;1.20;;;;;;;16.26;45.13;100276.20;1716888;83;21068;-70
2021/05/23 11:21:06;;;;;;;3.72;1.57;;;;;;;16.10;45.52;100273.97;1711701;83;21263;-69
2021/05/23 11:23:35;;;;;;;5.30;1.85;;;;;;;16.32;46.10;100274.05;1680254;84;21092;-69
2021/05/23 11:26:10;;;;;;;1.82;1.27;;;;;;;16.60;46.44;100275.66;1674855;84;21605;-69
2021/05/23 11:28:37;;;;;;;2.67;1.00;;;;;;;16.71;46.72;100276.35;1676521;84;21655;-70
2021/05/23 11:31:05;;;;;;;1.82;1.00;;;;;;;16.77;46.91;100274.14;1710496;83;21068;-70
2021/05/23 11:33:31;;;;;;;3.80;1.15;;;;;;;16.97;47.19;100277.57;1707620;83;21181;-70